Terminal Aerodrome Forecast
Issued by NWS

Home | Current Version | Previous Version | Text Only | Print | Product List | Glossary Off
Versions: 1 2 3 4 5 6 7 8 9 10 11 12 13 14 15 16 17 18 19 20 21 22 23 24 25 26 27 28 29 30 31 32 33 34 35 36

000
FTUS43 KLOT 192325
TAFORD
TAF
KORD 192325Z 2000/2106 09007KT 3SM -RA BR SCT015 OVC035
      TEMPO 2000/2003 2SM RA BR SCT007 OVC015
     FM200300 08007KT 2SM -RA BR OVC007
     FM200500 08007KT 1 1/2SM -SHRA BR OVC004
     FM200800 08006KT 1SM -DZ BR OVC003
     FM201800 10006KT 4SM BR OVC007=

USA.gov is the U.S. government's official web portal to all federal, state and local government web resources and services.